createdAt,value
2023-04-18T00:00:28.679Z,86.70
2023-04-18T00:03:00.922Z,86.80
2023-04-18T00:05:43.279Z,86.60
2023-04-18T00:08:12.737Z,86.80
2023-04-18T00:10:42.374Z,86.80
2023-04-18T00:13:13.202Z,86.80
2023-04-18T00:15:44.848Z,87.10
2023-04-18T00:18:19.031Z,86.70
2023-04-18T00:20:48.583Z,86.50
2023-04-18T00:23:17.921Z,86.50
2023-04-18T00:25:47.196Z,86.70
2023-04-18T00:28:16.652Z,86.10
2023-04-18T00:30:47.320Z,86.10
2023-04-18T00:33:16.815Z,86.20
2023-04-18T00:35:46.213Z,86.00
2023-04-18T00:38:15.500Z,86.00
2023-04-18T00:40:44.913Z,86.00
2023-04-18T00:43:17.985Z,85.80
2023-04-18T00:45:47.337Z,85.40
2023-04-18T00:51:01.419Z,85.40
2023-04-18T00:53:31.904Z,85.00
2023-04-18T00:56:01.259Z,85.30
2023-04-18T00:58:32.336Z,85.20
2023-04-18T01:01:08.716Z,84.50
2023-04-18T01:03:38.773Z,84.50
2023-04-18T01:06:08.380Z,84.10
2023-04-18T01:08:39.284Z,84.10
2023-04-18T01:11:08.621Z,84.20
2023-04-18T01:13:37.910Z,84.20
2023-04-18T01:16:07.708Z,84.00
2023-04-18T01:18:38.114Z,84.10
2023-04-18T01:21:08.052Z,83.90
2023-04-18T01:23:38.525Z,83.70
2023-04-18T01:26:08.598Z,83.60
2023-04-18T01:28:39.142Z,83.50
2023-04-18T01:31:08.849Z,83.10
2023-04-18T01:33:41.465Z,83.30
2023-04-18T01:36:10.894Z,83.20
2023-04-18T01:38:40.301Z,83.10
2023-04-18T01:41:09.671Z,83.20
2023-04-18T01:43:39.003Z,83.10
2023-04-18T01:48:51.786Z,82.70
2023-04-18T01:51:21.131Z,82.40
2023-04-18T01:53:50.888Z,82.20
2023-04-18T01:56:25.865Z,82.10
2023-04-18T02:01:40.612Z,82.10
2023-04-18T02:04:10.082Z,82.30
2023-04-18T02:06:41.179Z,82.30
2023-04-18T02:09:10.680Z,81.90
2023-04-18T02:11:42.981Z,81.60
2023-04-18T02:14:18.120Z,81.30
2023-04-18T02:16:51.343Z,81.20
2023-04-18T02:19:21.451Z,81.20
2023-04-18T02:21:50.957Z,81.00
2023-04-18T02:24:20.678Z,80.40
2023-04-18T02:26:50.683Z,80.20
2023-04-18T02:29:19.993Z,80.30
2023-04-18T02:31:49.369Z,80.30
2023-04-18T02:34:18.772Z,79.80
2023-04-18T02:36:48.649Z,79.60
2023-04-18T02:39:17.947Z,81.30
2023-04-18T02:41:47.326Z,80.90
2023-04-18T02:44:28.329Z,80.20
2023-04-18T02:46:57.628Z,80.20
2023-04-18T02:49:27.047Z,81.40
2023-04-18T02:51:59.750Z,80.00
2023-04-18T02:54:29.192Z,79.00
2023-04-18T02:59:40.888Z,79.00
2023-04-18T03:02:10.342Z,79.40
2023-04-18T03:04:39.790Z,78.70
2023-04-18T03:07:09.129Z,78.30
2023-04-18T03:09:38.401Z,78.40
2023-04-18T03:12:07.899Z,77.50
2023-04-18T03:14:37.394Z,78.00
2023-04-18T03:17:07.113Z,77.00
2023-04-18T03:19:36.450Z,76.90
2023-04-18T03:22:05.837Z,76.70
2023-04-18T03:24:35.179Z,76.80
2023-04-18T03:27:04.464Z,76.70
2023-04-18T03:29:33.823Z,77.00
2023-04-18T03:32:03.063Z,76.80
2023-04-18T03:34:32.422Z,76.70
2023-04-18T03:37:02.182Z,76.60
2023-04-18T03:39:31.452Z,76.30
2023-04-18T03:42:00.597Z,76.40
2023-04-18T03:44:29.967Z,76.80
2023-04-18T03:46:59.158Z,75.40
2023-04-18T03:49:28.370Z,74.70
2023-04-18T03:51:57.559Z,74.30
2023-04-18T03:54:26.896Z,74.40
2023-04-18T03:56:56.767Z,74.70
2023-04-18T03:59:26.085Z,73.80
2023-04-18T04:01:55.366Z,72.50
2023-04-18T04:04:24.616Z,72.60
2023-04-18T04:06:53.916Z,72.10
2023-04-18T04:09:23.200Z,71.90
2023-04-18T04:11:52.625Z,71.30
2023-04-18T04:14:22.632Z,70.60
2023-04-18T04:16:53.177Z,70.40
2023-04-18T04:19:22.519Z,70.10
2023-04-18T04:21:52.119Z,69.10
2023-04-18T04:24:23.665Z,69.10
2023-04-18T04:26:53.064Z,69.10
2023-04-18T04:29:22.523Z,69.30
2023-04-18T04:31:51.833Z,68.70
2023-04-18T04:34:21.405Z,68.60
2023-04-18T04:36:52.067Z,68.50
2023-04-18T04:39:21.549Z,68.30
2023-04-18T04:41:54.409Z,68.50
2023-04-18T04:44:27.077Z,68.60
2023-04-18T04:46:57.066Z,68.00
2023-04-18T04:49:26.388Z,68.00
2023-04-18T04:51:55.613Z,67.50
2023-04-18T04:54:24.952Z,67.60
2023-04-18T04:56:54.219Z,67.70
2023-04-18T04:59:23.627Z,67.50
2023-04-18T05:01:52.902Z,67.70
2023-04-18T05:04:22.397Z,67.50
2023-04-18T05:06:52.165Z,66.60
2023-04-18T05:09:21.487Z,66.60
2023-04-18T05:11:50.803Z,66.20
2023-04-18T05:14:21.719Z,66.10
2023-04-18T05:16:51.304Z,66.10
2023-04-18T05:19:21.395Z,66.10
2023-04-18T05:21:50.697Z,66.10
2023-04-18T05:24:20.380Z,65.90
2023-04-18T05:26:49.830Z,65.60
2023-04-18T05:29:19.142Z,66.00
2023-04-18T05:31:48.516Z,65.80
2023-04-18T05:34:17.905Z,65.40
2023-04-18T05:36:48.766Z,65.00
2023-04-18T05:39:18.145Z,64.70
2023-04-18T05:41:47.488Z,65.60
2023-04-18T05:44:18.637Z,64.90
2023-04-18T05:46:52.235Z,64.50
2023-04-18T05:49:22.112Z,64.20
2023-04-18T05:51:51.588Z,64.00
2023-04-18T05:54:26.064Z,63.40
2023-04-18T05:56:56.380Z,63.40
2023-04-18T05:59:27.869Z,63.30
2023-04-18T06:01:57.554Z,63.40
2023-04-18T06:04:27.049Z,63.40
2023-04-18T06:06:56.531Z,63.40
2023-04-18T06:09:25.852Z,63.20
2023-04-18T06:11:55.150Z,63.00
2023-04-18T06:14:24.412Z,62.50
2023-04-18T06:16:53.756Z,63.10
2023-04-18T06:19:24.198Z,62.40
2023-04-18T06:21:54.995Z,62.20
2023-04-18T06:24:24.803Z,62.40
2023-04-18T06:26:56.707Z,62.30
2023-04-18T06:29:28.219Z,61.90
2023-04-18T06:31:58.709Z,61.80
2023-04-18T06:34:28.173Z,61.50
2023-04-18T06:36:57.731Z,61.70
2023-04-18T06:39:28.870Z,61.40
2023-04-18T06:41:59.673Z,61.50
2023-04-18T06:44:29.009Z,60.80
2023-04-18T06:46:58.482Z,60.30
2023-04-18T06:49:28.026Z,60.00
2023-04-18T06:51:57.424Z,61.20
2023-04-18T06:54:26.853Z,60.50
2023-04-18T06:56:56.959Z,60.30
2023-04-18T06:59:26.296Z,59.90
2023-04-18T07:01:55.693Z,59.70
2023-04-18T07:04:25.330Z,59.90
2023-04-18T07:06:54.859Z,59.60
2023-04-18T07:09:24.183Z,59.80
2023-04-18T07:11:53.890Z,59.80
2023-04-18T07:14:26.255Z,59.90
2023-04-18T07:16:55.808Z,59.70
2023-04-18T07:19:25.802Z,59.70
2023-04-18T07:21:56.940Z,59.60
2023-04-18T07:24:26.326Z,59.30
2023-04-18T07:26:56.203Z,59.60
2023-04-18T07:29:25.537Z,59.00
2023-04-18T07:31:54.952Z,58.80
2023-04-18T07:34:24.336Z,59.50
2023-04-18T07:36:53.776Z,59.10
2023-04-18T07:39:23.234Z,59.10
2023-04-18T07:41:52.610Z,59.10
2023-04-18T07:44:22.943Z,58.60
2023-04-18T07:46:52.905Z,58.40
2023-04-18T07:49:22.182Z,58.50
2023-04-18T07:51:51.620Z,58.80
2023-04-18T07:54:21.136Z,58.60
2023-04-18T07:56:52.780Z,58.90
2023-04-18T07:59:22.095Z,58.60
2023-04-18T08:01:51.462Z,58.70
2023-04-18T08:04:20.984Z,59.00
2023-04-18T08:06:50.389Z,58.70
2023-04-18T08:09:21.521Z,58.90
2023-04-18T08:11:50.884Z,58.70
2023-04-18T08:14:20.200Z,59.10
2023-04-18T08:16:49.648Z,59.10
2023-04-18T08:19:19.170Z,58.70
2023-04-18T08:21:51.806Z,59.10
2023-04-18T08:24:21.161Z,58.80
2023-04-18T08:26:50.628Z,59.00
2023-04-18T08:29:19.948Z,58.60
2023-04-18T08:31:49.321Z,58.00
2023-04-18T08:34:18.753Z,57.90
2023-04-18T08:36:48.170Z,58.30
2023-04-18T08:39:17.713Z,58.40
2023-04-18T08:42:00.665Z,57.90
2023-04-18T08:44:31.092Z,57.90
2023-04-18T08:47:04.030Z,58.20
2023-04-18T08:49:33.798Z,57.70
2023-04-18T08:52:06.556Z,57.90
2023-04-18T08:54:38.240Z,57.80
2023-04-18T08:57:09.835Z,57.80
2023-04-18T08:59:39.473Z,58.10
2023-04-18T09:02:11.270Z,57.90
2023-04-18T09:04:50.028Z,57.50
2023-04-18T09:07:32.506Z,57.20
2023-04-18T09:10:02.079Z,57.70
2023-04-18T09:12:33.639Z,57.70
2023-04-18T09:15:17.166Z,57.60
2023-04-18T09:17:57.220Z,58.00
2023-04-18T09:20:42.109Z,57.60
2023-04-18T09:23:17.381Z,57.70
2023-04-18T09:25:49.156Z,57.90
2023-04-18T09:28:35.233Z,57.80
2023-04-18T09:31:17.641Z,57.90
2023-04-18T09:34:03.415Z,58.00
2023-04-18T09:36:33.267Z,58.20
2023-04-18T09:39:03.012Z,57.80
2023-04-18T09:41:33.635Z,58.40
2023-04-18T09:44:15.298Z,57.80
2023-04-18T09:46:47.594Z,57.80
2023-04-18T09:49:19.587Z,58.00
2023-04-18T09:51:51.891Z,57.80
2023-04-18T09:54:22.096Z,58.00
2023-04-18T09:56:54.995Z,57.50
2023-04-18T09:59:52.563Z,57.40
2023-04-18T10:02:29.542Z,57.40
2023-04-18T10:05:01.789Z,57.10
2023-04-18T10:07:33.701Z,57.00
2023-04-18T10:10:02.876Z,56.80
2023-04-18T10:12:32.531Z,57.00
2023-04-18T10:15:03.170Z,57.10
2023-04-18T10:18:05.827Z,57.10
2023-04-18T10:20:36.783Z,57.30
2023-04-18T10:23:44.079Z,57.70
2023-04-18T10:26:13.574Z,57.90
2023-04-18T10:29:00.384Z,57.80
2023-04-18T10:31:30.950Z,58.30
2023-04-18T10:34:05.647Z,58.40
2023-04-18T10:36:35.829Z,58.40
2023-04-18T10:39:26.495Z,58.30
2023-04-18T10:41:55.690Z,58.20
2023-04-18T10:44:25.277Z,58.30
2023-04-18T10:46:54.543Z,58.30
2023-04-18T10:49:35.352Z,58.50
2023-04-18T10:52:10.866Z,59.00
2023-04-18T10:54:59.130Z,59.70
2023-04-18T10:57:40.994Z,58.90
2023-04-18T11:00:13.703Z,60.10
2023-04-18T11:02:53.778Z,59.40
2023-04-18T11:05:29.921Z,59.40
2023-04-18T11:07:59.166Z,60.00
2023-04-18T11:10:30.359Z,59.60
2023-04-18T11:13:05.412Z,59.70
2023-04-18T11:15:38.244Z,59.60
2023-04-18T11:18:07.862Z,59.70
2023-04-18T11:20:51.377Z,59.80
2023-04-18T11:23:25.950Z,59.80
2023-04-18T11:25:57.622Z,60.00
2023-04-18T11:28:27.849Z,60.00
2023-04-18T11:31:03.853Z,60.20
2023-04-18T11:33:33.468Z,60.70
2023-04-18T11:36:02.739Z,60.60
2023-04-18T11:38:32.423Z,60.80
2023-04-18T11:41:04.686Z,61.20
2023-04-18T11:43:33.890Z,61.50
2023-04-18T11:46:03.160Z,62.00
2023-04-18T11:48:44.271Z,62.40
2023-04-18T11:51:36.861Z,62.10
2023-04-18T11:54:06.382Z,62.10
2023-04-18T11:56:36.811Z,62.40
2023-04-18T11:59:12.354Z,62.80
2023-04-18T12:01:41.782Z,62.90
2023-04-18T12:04:11.180Z,63.20
2023-04-18T12:06:55.093Z,63.20
2023-04-18T12:09:26.221Z,63.40
2023-04-18T12:12:06.216Z,63.80
2023-04-18T12:14:37.787Z,63.80
2023-04-18T12:17:07.388Z,64.60
2023-04-18T12:19:37.049Z,64.30
2023-04-18T12:22:07.508Z,64.20
2023-04-18T12:24:37.092Z,64.50
2023-04-18T12:27:06.437Z,64.50
2023-04-18T12:29:35.738Z,64.80
2023-04-18T12:32:05.188Z,64.60
2023-04-18T12:34:34.507Z,65.50
2023-04-18T12:37:05.908Z,65.60
2023-04-18T12:39:35.241Z,67.70
2023-04-18T12:42:04.609Z,66.00
2023-04-18T12:44:34.170Z,69.10
2023-04-18T12:47:03.578Z,65.90
2023-04-18T12:49:32.909Z,66.40
2023-04-18T12:52:02.216Z,66.60
2023-04-18T12:54:32.057Z,66.50
2023-04-18T12:57:02.779Z,66.10
2023-04-18T12:59:32.070Z,66.90
2023-04-18T13:02:03.777Z,66.20
2023-04-18T13:04:33.379Z,66.20
2023-04-18T13:07:02.999Z,66.70
2023-04-18T13:09:37.015Z,66.50
2023-04-18T13:12:06.618Z,66.60
2023-04-18T13:14:38.138Z,66.90
2023-04-18T13:17:11.736Z,68.20
2023-04-18T13:19:43.427Z,67.50
2023-04-18T13:22:13.709Z,67.10
2023-04-18T13:24:47.202Z,67.50
2023-04-18T13:27:19.941Z,67.40
2023-04-18T13:29:52.612Z,67.60
2023-04-18T13:32:23.465Z,67.80
2023-04-18T13:34:53.058Z,67.70
2023-04-18T13:37:22.412Z,68.60
2023-04-18T13:39:51.934Z,67.90
2023-04-18T13:42:21.430Z,67.90
2023-04-18T13:44:51.358Z,67.80
2023-04-18T13:47:21.424Z,68.10
2023-04-18T13:49:51.001Z,67.90
2023-04-18T13:52:20.275Z,68.00
2023-04-18T13:54:50.114Z,67.70
2023-04-18T13:57:19.477Z,67.80
2023-04-18T13:59:48.757Z,67.70
2023-04-18T14:02:18.406Z,68.00
2023-04-18T14:04:47.886Z,67.70
2023-04-18T14:07:17.530Z,67.60
2023-04-18T14:09:49.180Z,67.80
2023-04-18T14:12:18.468Z,68.10
2023-04-18T14:14:47.775Z,67.80
2023-04-18T14:17:17.117Z,67.60
2023-04-18T14:19:46.740Z,67.60
2023-04-18T14:22:16.108Z,67.80
2023-04-18T14:24:45.490Z,67.50
2023-04-18T14:27:14.763Z,67.40
2023-04-18T14:29:44.020Z,67.90
2023-04-18T14:32:13.465Z,67.60
2023-04-18T14:34:43.767Z,67.80
2023-04-18T14:37:13.852Z,67.40
2023-04-18T14:39:44.273Z,67.60
2023-04-18T14:42:13.623Z,67.60
2023-04-18T14:44:43.083Z,67.60
2023-04-18T14:47:12.483Z,67.70
2023-04-18T14:49:41.785Z,67.70
2023-04-18T14:52:11.071Z,67.30
2023-04-18T14:54:40.337Z,68.10
2023-04-18T14:57:11.360Z,68.20
2023-04-18T14:59:40.599Z,68.20
2023-04-18T15:02:10.064Z,68.20
2023-04-18T15:04:40.051Z,68.60
2023-04-18T15:07:09.711Z,68.70
2023-04-18T15:09:42.527Z,68.80
2023-04-18T15:12:12.383Z,68.30
2023-04-18T15:14:41.963Z,68.50
2023-04-18T15:17:11.375Z,68.90
2023-04-18T15:19:40.640Z,68.80
2023-04-18T15:22:10.036Z,68.60
2023-04-18T15:24:39.268Z,69.20
2023-04-18T15:27:09.023Z,68.70
2023-04-18T15:29:39.273Z,69.10
2023-04-18T15:32:08.926Z,68.90
2023-04-18T15:34:38.374Z,69.20
2023-04-18T15:37:08.173Z,69.20
2023-04-18T15:39:37.797Z,69.30
2023-04-18T15:42:07.973Z,69.50
2023-04-18T15:44:37.277Z,69.50
2023-04-18T15:47:06.885Z,69.60
2023-04-18T15:49:36.133Z,69.80
2023-04-18T15:52:07.800Z,69.70
2023-04-18T15:54:37.141Z,69.90
2023-04-18T15:57:06.670Z,70.00
2023-04-18T15:59:35.861Z,70.10
2023-04-18T16:02:07.860Z,70.30
2023-04-18T16:04:37.300Z,70.50
2023-04-18T16:07:07.392Z,70.30
2023-04-18T16:09:36.771Z,71.30
2023-04-18T16:12:08.102Z,70.70
2023-04-18T16:14:37.396Z,70.90
2023-04-18T16:17:06.766Z,71.00
2023-04-18T16:19:39.247Z,71.10
2023-04-18T16:22:08.838Z,71.00
2023-04-18T16:24:38.828Z,71.10
2023-04-18T16:27:08.789Z,71.30
2023-04-18T16:29:37.994Z,71.40
2023-04-18T16:32:07.755Z,71.60
2023-04-18T16:34:37.007Z,71.60
2023-04-18T16:37:06.496Z,71.70
2023-04-18T16:39:35.711Z,72.00
2023-04-18T16:42:05.014Z,72.00
2023-04-18T16:44:34.290Z,72.20
2023-04-18T16:47:05.880Z,73.10
2023-04-18T16:49:35.624Z,72.20
2023-04-18T16:52:04.875Z,72.50
2023-04-18T16:54:34.101Z,72.80
2023-04-18T16:57:03.761Z,72.80
2023-04-18T16:59:33.180Z,72.70
2023-04-18T17:02:02.451Z,73.10
2023-04-18T17:04:32.444Z,73.30
2023-04-18T17:07:01.757Z,73.30
2023-04-18T17:09:31.946Z,73.40
2023-04-18T17:12:02.853Z,74.50
2023-04-18T17:14:32.078Z,73.90
2023-04-18T17:17:01.634Z,73.90
2023-04-18T17:19:31.031Z,74.00
2023-04-18T17:22:00.334Z,74.10
2023-04-18T17:24:29.543Z,74.50
2023-04-18T17:26:58.926Z,74.40
2023-04-18T17:29:28.326Z,74.80
2023-04-18T17:31:57.598Z,74.70
2023-04-18T17:34:26.922Z,75.00
2023-04-18T17:36:56.149Z,75.20
2023-04-18T17:39:25.766Z,75.20
2023-04-18T17:41:55.246Z,75.50
2023-04-18T17:44:24.451Z,75.50
2023-04-18T17:46:53.641Z,75.60
2023-04-18T17:49:23.707Z,75.80
2023-04-18T17:51:53.016Z,76.30
2023-04-18T17:54:22.243Z,76.40
2023-04-18T17:56:51.385Z,77.00
2023-04-18T17:59:20.596Z,76.40
2023-04-18T18:01:49.980Z,76.70
2023-04-18T18:04:20.881Z,76.70
2023-04-18T18:06:58.466Z,77.00
2023-04-18T18:09:27.812Z,76.90
2023-04-18T18:11:57.059Z,77.20
2023-04-18T18:14:26.456Z,77.50
2023-04-18T18:16:55.745Z,77.40
2023-04-18T18:19:25.348Z,77.50
2023-04-18T18:21:54.574Z,77.60
2023-04-18T18:24:26.077Z,77.70
2023-04-18T18:26:55.446Z,77.90
2023-04-18T18:29:24.978Z,78.10
2023-04-18T18:31:54.265Z,78.10
2023-04-18T18:34:23.801Z,78.30
2023-04-18T18:36:53.132Z,78.40
2023-04-18T18:39:22.319Z,78.50
2023-04-18T18:41:51.757Z,78.70
2023-04-18T18:44:20.944Z,79.00
2023-04-18T18:46:50.192Z,78.80
2023-04-18T18:49:19.532Z,79.00
2023-04-18T18:51:48.721Z,79.30
2023-04-18T18:54:17.977Z,79.20
2023-04-18T18:56:47.649Z,79.50
2023-04-18T18:59:17.003Z,79.50
2023-04-18T19:01:46.428Z,79.70
2023-04-18T19:04:16.224Z,79.70
2023-04-18T19:06:45.489Z,79.80
2023-04-18T19:09:15.125Z,79.70
2023-04-18T19:11:44.455Z,80.00
2023-04-18T19:14:13.748Z,80.10
2023-04-18T19:16:43.033Z,80.20
2023-04-18T19:19:13.810Z,80.40
2023-04-18T19:21:46.754Z,80.70
2023-04-18T19:24:16.266Z,80.70
2023-04-18T19:26:45.554Z,80.90
2023-04-18T19:29:15.236Z,81.00
2023-04-18T19:31:44.766Z,81.40
2023-04-18T19:34:14.434Z,81.50
2023-04-18T19:36:43.669Z,81.80
2023-04-18T19:39:13.120Z,81.80
2023-04-18T19:41:47.031Z,82.00
2023-04-18T19:44:16.243Z,82.10
2023-04-18T19:46:45.472Z,82.30
2023-04-18T19:49:15.124Z,82.30
2023-04-18T19:51:44.423Z,82.50
2023-04-18T19:54:14.318Z,82.70
2023-04-18T19:56:43.471Z,83.00
2023-04-18T19:59:12.920Z,83.00
2023-04-18T20:01:42.341Z,83.10
2023-04-18T20:04:11.784Z,83.40
2023-04-18T20:06:41.572Z,83.50
2023-04-18T20:09:16.398Z,83.60
2023-04-18T20:11:47.443Z,83.90
2023-04-18T20:14:16.756Z,83.90
2023-04-18T20:16:47.173Z,83.90
2023-04-18T20:19:17.192Z,84.00
2023-04-18T20:21:46.607Z,84.10
2023-04-18T20:24:16.604Z,84.30
2023-04-18T20:26:45.897Z,84.40
2023-04-18T20:29:15.517Z,84.50
2023-04-18T20:31:44.898Z,84.50
2023-04-18T20:34:14.093Z,84.70
2023-04-18T20:36:43.371Z,84.80
2023-04-18T20:39:16.031Z,85.10
2023-04-18T20:41:49.428Z,85.10
2023-04-18T20:44:21.934Z,85.10
2023-04-18T20:46:51.367Z,85.20
2023-04-18T20:49:20.789Z,85.40
2023-04-18T20:51:50.118Z,85.50
2023-04-18T20:54:19.281Z,85.60
2023-04-18T20:56:48.537Z,85.60
2023-04-18T20:59:17.727Z,85.60
2023-04-18T21:01:47.882Z,85.80
2023-04-18T21:04:17.393Z,85.80
2023-04-18T21:06:46.869Z,85.80
2023-04-18T21:09:16.685Z,85.90
2023-04-18T21:11:46.090Z,86.10
2023-04-18T21:14:15.573Z,86.10
2023-04-18T21:16:45.969Z,86.10
2023-04-18T21:19:15.139Z,86.30
2023-04-18T21:21:44.383Z,86.40
2023-04-18T21:24:13.806Z,86.40
2023-04-18T21:26:43.308Z,86.60
2023-04-18T21:29:15.475Z,86.70
2023-04-18T21:31:44.757Z,86.80
2023-04-18T21:34:14.270Z,87.00
2023-04-18T21:36:43.706Z,86.80
2023-04-18T21:39:12.940Z,86.80
2023-04-18T21:41:43.107Z,86.90
2023-04-18T21:44:13.059Z,86.90
2023-04-18T21:46:42.490Z,87.10
2023-04-18T21:49:11.785Z,87.10
2023-04-18T21:51:41.027Z,87.20
2023-04-18T21:54:10.210Z,87.10
2023-04-18T21:56:39.786Z,87.20
2023-04-18T21:59:11.160Z,87.50
2023-04-18T22:01:40.575Z,87.40
2023-04-18T22:04:09.997Z,87.50
2023-04-18T22:06:39.294Z,87.60
2023-04-18T22:09:09.757Z,87.70
2023-04-18T22:11:39.308Z,87.70
2023-04-18T22:14:08.482Z,87.80
2023-04-18T22:16:39.180Z,87.80
2023-04-18T22:19:10.103Z,88.70
2023-04-18T22:21:39.471Z,88.00
2023-04-18T22:24:10.163Z,88.20
2023-04-18T22:26:39.509Z,88.40
2023-04-18T22:29:08.859Z,88.50
2023-04-18T22:31:38.154Z,88.50
2023-04-18T22:34:07.524Z,88.70
2023-04-18T22:36:36.945Z,88.90
2023-04-18T22:39:07.208Z,88.80
2023-04-18T22:41:36.782Z,88.80
2023-04-18T22:44:06.356Z,89.00
2023-04-18T22:46:35.937Z,89.00
2023-04-18T22:49:05.462Z,89.10
2023-04-18T22:51:35.161Z,89.40
2023-04-18T22:54:04.440Z,89.30
2023-04-18T22:56:33.811Z,89.50
2023-04-18T22:59:03.139Z,89.60
2023-04-18T23:01:32.397Z,89.60
2023-04-18T23:04:01.949Z,89.70
2023-04-18T23:06:32.461Z,89.70
2023-04-18T23:09:02.007Z,89.80
2023-04-18T23:11:31.485Z,90.00
2023-04-18T23:14:00.747Z,90.00
2023-04-18T23:16:30.067Z,90.00
2023-04-18T23:18:59.437Z,90.10
2023-04-18T23:21:29.096Z,90.00
2023-04-18T23:23:58.472Z,90.10
2023-04-18T23:26:28.042Z,90.10
2023-04-18T23:28:57.389Z,90.10
2023-04-18T23:31:26.812Z,90.20
2023-04-18T23:33:57.489Z,90.20
2023-04-18T23:36:28.320Z,90.30
2023-04-18T23:38:57.629Z,90.30
2023-04-18T23:41:26.994Z,90.30
2023-04-18T23:43:56.288Z,90.30
2023-04-18T23:46:25.584Z,90.40
2023-04-18T23:48:54.867Z,90.40
2023-04-18T23:51:24.170Z,90.30
2023-04-18T23:53:53.679Z,90.40
2023-04-18T23:56:24.242Z,90.30
2023-04-18T23:58:54.879Z,90.30
